Terminal Aerodrome Forecast
Issued by NWS

Home | Current Version | Previous Version | Text Only | Print | Product List | Glossary On
Versions: 1 2 3 4 5 6 7 8 9 10 11 12 13 14 15 16 17 18 19 20 21 22 23 24
363
FTUS42 KMLB 010300 AAA
TAFSFB
TAF AMD
KSFB 010300Z 0103/0124 22006KT 6SM -SHRA BR SCT015 BKN100 BKN140
      TEMPO 0103/0106 5SM -SHRA BR BKN030 BKN045
     FM010900 16005KT P6SM VCSH SCT040 OVC100
     FM011500 19011KT P6SM VCSH SCT020 BKN040 OVC100=

USA.gov is the U.S. government's official web portal to all federal, state and local government web resources and services.